sensor_id;sensor_type;location;lat;lon;timestamp;P1;durP1;ratioP1;P2;durP2;ratioP2
76953;SDS011;65893;51.698;-0.292;2023-05-10T06:09:27;13.40;;;5.30;;
76953;SDS011;65893;51.698;-0.292;2023-05-10T06:14:30;11.13;;;4.25;;
76953;SDS011;65893;51.698;-0.292;2023-05-10T06:16:56;10.98;;;3.60;;
76953;SDS011;65893;51.698;-0.292;2023-05-10T06:19:24;18.52;;;5.38;;
76953;SDS011;65893;51.698;-0.292;2023-05-10T06:21:51;16.40;;;4.97;;
76953;SDS011;65893;51.698;-0.292;2023-05-10T06:24:17;12.18;;;4.72;;
76953;SDS011;65893;51.698;-0.292;2023-05-10T06:26:43;14.40;;;5.43;;
76953;SDS011;65893;51.698;-0.292;2023-05-10T06:29:12;10.05;;;4.07;;
76953;SDS011;65893;51.698;-0.292;2023-05-10T06:31:50;9.63;;;4.28;;
76953;SDS011;65893;51.698;-0.292;2023-05-10T06:34:21;13.20;;;4.18;;
76953;SDS011;65893;51.698;-0.292;2023-05-10T06:36:47;13.55;;;4.45;;
76953;SDS011;65893;51.698;-0.292;2023-05-10T06:39:13;15.07;;;3.75;;
76953;SDS011;65893;51.698;-0.292;2023-05-10T06:41:39;9.35;;;3.55;;
76953;SDS011;65893;51.698;-0.292;2023-05-10T06:44:08;10.65;;;4.13;;
76953;SDS011;65893;51.698;-0.292;2023-05-10T06:46:59;12.93;;;3.42;;
76953;SDS011;65893;51.698;-0.292;2023-05-10T06:49:46;11.60;;;3.83;;
76953;SDS011;65893;51.698;-0.292;2023-05-10T06:52:15;9.05;;;3.25;;
76953;SDS011;65893;51.698;-0.292;2023-05-10T06:54:45;9.05;;;3.30;;
76953;SDS011;65893;51.698;-0.292;2023-05-10T06:57:12;10.98;;;3.17;;
76953;SDS011;65893;51.698;-0.292;2023-05-10T06:59:38;10.15;;;3.95;;
76953;SDS011;65893;51.698;-0.292;2023-05-10T07:02:06;12.57;;;3.10;;
76953;SDS011;65893;51.698;-0.292;2023-05-10T07:04:32;14.82;;;3.20;;
76953;SDS011;65893;51.698;-0.292;2023-05-10T07:06:59;9.75;;;3.17;;
76953;SDS011;65893;51.698;-0.292;2023-05-10T07:09:25;9.52;;;2.60;;
76953;SDS011;65893;51.698;-0.292;2023-05-10T07:11:58;12.48;;;3.28;;
76953;SDS011;65893;51.698;-0.292;2023-05-10T07:14:27;10.13;;;2.67;;
76953;SDS011;65893;51.698;-0.292;2023-05-10T07:16:53;8.07;;;2.63;;
76953;SDS011;65893;51.698;-0.292;2023-05-10T07:19:21;9.88;;;2.78;;
76953;SDS011;65893;51.698;-0.292;2023-05-10T07:21:47;12.10;;;3.10;;
76953;SDS011;65893;51.698;-0.292;2023-05-10T07:24:16;7.40;;;2.67;;
76953;SDS011;65893;51.698;-0.292;2023-05-10T07:26:47;8.10;;;2.92;;
76953;SDS011;65893;51.698;-0.292;2023-05-10T07:29:18;11.32;;;3.10;;
76953;SDS011;65893;51.698;-0.292;2023-05-10T07:31:44;9.48;;;2.40;;
76953;SDS011;65893;51.698;-0.292;2023-05-10T07:34:10;10.13;;;1.85;;
76953;SDS011;65893;51.698;-0.292;2023-05-10T07:36:36;12.15;;;2.67;;
76953;SDS011;65893;51.698;-0.292;2023-05-10T07:39:02;9.63;;;2.42;;
76953;SDS011;65893;51.698;-0.292;2023-05-10T07:41:28;8.05;;;2.20;;
76953;SDS011;65893;51.698;-0.292;2023-05-10T07:44:05;10.23;;;2.40;;
76953;SDS011;65893;51.698;-0.292;2023-05-10T07:58:18;11.02;;;2.60;;
76953;SDS011;65893;51.698;-0.292;2023-05-10T08:00:47;12.90;;;2.60;;
76953;SDS011;65893;51.698;-0.292;2023-05-10T08:08:21;9.95;;;2.50;;
76953;SDS011;65893;51.698;-0.292;2023-05-10T08:10:52;15.23;;;2.85;;
76953;SDS011;65893;51.698;-0.292;2023-05-10T08:13:22;6.70;;;2.15;;
76953;SDS011;65893;51.698;-0.292;2023-05-10T08:15:52;6.45;;;2.30;;
76953;SDS011;65893;51.698;-0.292;2023-05-10T08:18:25;14.07;;;2.35;;
76953;SDS011;65893;51.698;-0.292;2023-05-10T08:20:52;11.88;;;2.22;;
76953;SDS011;65893;51.698;-0.292;2023-05-10T08:23:18;13.45;;;2.42;;
76953;SDS011;65893;51.698;-0.292;2023-05-10T08:25:52;10.63;;;2.20;;
76953;SDS011;65893;51.698;-0.292;2023-05-10T08:33:32;10.00;;;2.00;;
76953;SDS011;65893;51.698;-0.292;2023-05-10T08:35:58;7.65;;;1.77;;
76953;SDS011;65893;51.698;-0.292;2023-05-10T08:38:29;8.70;;;2.08;;
76953;SDS011;65893;51.698;-0.292;2023-05-10T08:40:56;17.45;;;1.92;;
76953;SDS011;65893;51.698;-0.292;2023-05-10T08:43:27;12.82;;;2.55;;
76953;SDS011;65893;51.698;-0.292;2023-05-10T08:45:55;11.43;;;2.50;;
76953;SDS011;65893;51.698;-0.292;2023-05-10T08:48:30;7.28;;;1.65;;
76953;SDS011;65893;51.698;-0.292;2023-05-10T08:51:03;7.50;;;2.35;;
76953;SDS011;65893;51.698;-0.292;2023-05-10T08:53:29;6.22;;;1.50;;
76953;SDS011;65893;51.698;-0.292;2023-05-10T08:55:56;9.27;;;2.15;;
76953;SDS011;65893;51.698;-0.292;2023-05-10T08:58:23;10.73;;;2.10;;
76953;SDS011;65893;51.698;-0.292;2023-05-10T09:00:49;7.53;;;1.60;;
76953;SDS011;65893;51.698;-0.292;2023-05-10T09:03:16;5.28;;;1.77;;
76953;SDS011;65893;51.698;-0.292;2023-05-10T09:05:42;5.25;;;1.75;;
76953;SDS011;65893;51.698;-0.292;2023-05-10T09:08:11;7.80;;;1.98;;
76953;SDS011;65893;51.698;-0.292;2023-05-10T09:10:38;5.80;;;1.67;;
76953;SDS011;65893;51.698;-0.292;2023-05-10T09:13:05;5.75;;;2.08;;
76953;SDS011;65893;51.698;-0.292;2023-05-10T09:15:31;6.93;;;1.90;;
76953;SDS011;65893;51.698;-0.292;2023-05-10T09:17:57;6.20;;;1.67;;
76953;SDS011;65893;51.698;-0.292;2023-05-10T09:20:27;6.50;;;2.00;;
76953;SDS011;65893;51.698;-0.292;2023-05-10T09:22:53;8.98;;;2.00;;
76953;SDS011;65893;51.698;-0.292;2023-05-10T09:25:19;8.57;;;2.05;;
76953;SDS011;65893;51.698;-0.292;2023-05-10T09:27:55;9.88;;;2.22;;
76953;SDS011;65893;51.698;-0.292;2023-05-10T09:30:28;9.32;;;2.15;;
76953;SDS011;65893;51.698;-0.292;2023-05-10T09:32:56;7.43;;;1.95;;
76953;SDS011;65893;51.698;-0.292;2023-05-10T09:35:29;18.77;;;2.60;;
76953;SDS011;65893;51.698;-0.292;2023-05-10T09:41:21;7.20;;;1.92;;
76953;SDS011;65893;51.698;-0.292;2023-05-10T09:43:55;5.82;;;1.48;;
76953;SDS011;65893;51.698;-0.292;2023-05-10T09:46:38;7.57;;;2.10;;
76953;SDS011;65893;51.698;-0.292;2023-05-10T09:49:14;7.13;;;2.03;;
76953;SDS011;65893;51.698;-0.292;2023-05-10T10:09:29;7.57;;;2.17;;
76953;SDS011;65893;51.698;-0.292;2023-05-10T10:12:06;8.98;;;2.45;;
76953;SDS011;65893;51.698;-0.292;2023-05-10T10:14:55;10.85;;;2.55;;
76953;SDS011;65893;51.698;-0.292;2023-05-10T10:17:26;7.03;;;2.10;;
76953;SDS011;65893;51.698;-0.292;2023-05-10T10:30:47;5.47;;;1.98;;
76953;SDS011;65893;51.698;-0.292;2023-05-10T11:12:50;8.85;;;2.05;;
76953;SDS011;65893;51.698;-0.292;2023-05-10T11:15:33;5.70;;;1.80;;
76953;SDS011;65893;51.698;-0.292;2023-05-10T11:24:14;8.07;;;1.85;;
76953;SDS011;65893;51.698;-0.292;2023-05-10T11:27:00;9.95;;;2.42;;
76953;SDS011;65893;51.698;-0.292;2023-05-10T11:29:58;4.43;;;1.25;;
76953;SDS011;65893;51.698;-0.292;2023-05-10T11:48:05;6.30;;;1.48;;
76953;SDS011;65893;51.698;-0.292;2023-05-10T11:55:48;7.50;;;1.63;;
76953;SDS011;65893;51.698;-0.292;2023-05-10T12:00:59;5.60;;;1.40;;
76953;SDS011;65893;51.698;-0.292;2023-05-10T12:03:46;8.30;;;1.60;;
76953;SDS011;65893;51.698;-0.292;2023-05-10T12:06:40;4.32;;;1.50;;
76953;SDS011;65893;51.698;-0.292;2023-05-10T12:15:34;8.10;;;1.90;;
76953;SDS011;65893;51.698;-0.292;2023-05-10T12:18:02;9.93;;;3.38;;
76953;SDS011;65893;51.698;-0.292;2023-05-10T12:20:32;8.68;;;1.83;;
76953;SDS011;65893;51.698;-0.292;2023-05-10T12:26:01;5.38;;;2.13;;
76953;SDS011;65893;51.698;-0.292;2023-05-10T12:28:32;6.53;;;1.42;;
76953;SDS011;65893;51.698;-0.292;2023-05-10T12:31:05;9.05;;;2.25;;
76953;SDS011;65893;51.698;-0.292;2023-05-10T12:33:36;5.72;;;2.00;;
76953;SDS011;65893;51.698;-0.292;2023-05-10T12:36:04;6.82;;;1.85;;
76953;SDS011;65893;51.698;-0.292;2023-05-10T12:38:33;11.13;;;2.65;;
76953;SDS011;65893;51.698;-0.292;2023-05-10T12:41:11;6.70;;;1.92;;
76953;SDS011;65893;51.698;-0.292;2023-05-10T12:43:38;5.65;;;1.67;;
76953;SDS011;65893;51.698;-0.292;2023-05-10T12:46:08;5.90;;;1.67;;
76953;SDS011;65893;51.698;-0.292;2023-05-10T12:48:38;6.82;;;1.60;;
76953;SDS011;65893;51.698;-0.292;2023-05-10T12:51:09;5.93;;;1.33;;
76953;SDS011;65893;51.698;-0.292;2023-05-10T12:53:45;5.55;;;1.55;;
76953;SDS011;65893;51.698;-0.292;2023-05-10T12:58:43;10.45;;;2.22;;
76953;SDS011;65893;51.698;-0.292;2023-05-10T13:01:13;8.18;;;2.15;;
76953;SDS011;65893;51.698;-0.292;2023-05-10T13:03:39;4.93;;;1.52;;
76953;SDS011;65893;51.698;-0.292;2023-05-10T13:06:08;5.35;;;1.35;;
76953;SDS011;65893;51.698;-0.292;2023-05-10T13:08:37;4.57;;;1.88;;
76953;SDS011;65893;51.698;-0.292;2023-05-10T13:13:38;6.13;;;2.03;;
76953;SDS011;65893;51.698;-0.292;2023-05-10T13:16:07;9.38;;;2.35;;
76953;SDS011;65893;51.698;-0.292;2023-05-10T13:18:38;9.07;;;2.67;;
76953;SDS011;65893;51.698;-0.292;2023-05-10T13:21:13;11.23;;;3.17;;
76953;SDS011;65893;51.698;-0.292;2023-05-10T13:23:42;12.43;;;2.65;;
76953;SDS011;65893;51.698;-0.292;2023-05-10T13:29:09;5.43;;;1.92;;
76953;SDS011;65893;51.698;-0.292;2023-05-10T13:31:37;7.55;;;2.25;;
76953;SDS011;65893;51.698;-0.292;2023-05-10T13:34:07;6.43;;;2.10;;
76953;SDS011;65893;51.698;-0.292;2023-05-10T13:36:33;6.57;;;1.95;;
76953;SDS011;65893;51.698;-0.292;2023-05-10T13:39:04;10.05;;;1.90;;
76953;SDS011;65893;51.698;-0.292;2023-05-10T13:41:42;5.85;;;1.80;;
76953;SDS011;65893;51.698;-0.292;2023-05-10T13:44:19;5.88;;;1.60;;
76953;SDS011;65893;51.698;-0.292;2023-05-10T13:46:56;3.47;;;1.27;;
76953;SDS011;65893;51.698;-0.292;2023-05-10T13:49:23;5.43;;;1.30;;
76953;SDS011;65893;51.698;-0.292;2023-05-10T13:51:55;6.97;;;1.83;;
76953;SDS011;65893;51.698;-0.292;2023-05-10T13:54:21;6.85;;;1.80;;
76953;SDS011;65893;51.698;-0.292;2023-05-10T13:56:51;7.35;;;2.25;;
76953;SDS011;65893;51.698;-0.292;2023-05-10T14:01:59;6.53;;;2.00;;
76953;SDS011;65893;51.698;-0.292;2023-05-10T14:11:13;7.93;;;2.25;;
76953;SDS011;65893;51.698;-0.292;2023-05-10T14:17:15;6.85;;;1.85;;
76953;SDS011;65893;51.698;-0.292;2023-05-10T14:19:54;8.90;;;1.92;;
76953;SDS011;65893;51.698;-0.292;2023-05-10T14:22:20;7.80;;;2.25;;
76953;SDS011;65893;51.698;-0.292;2023-05-10T14:24:51;6.20;;;2.00;;
76953;SDS011;65893;51.698;-0.292;2023-05-10T14:27:17;7.97;;;2.13;;
76953;SDS011;65893;51.698;-0.292;2023-05-10T14:29:44;9.20;;;2.97;;
76953;SDS011;65893;51.698;-0.292;2023-05-10T14:32:14;10.40;;;3.03;;
76953;SDS011;65893;51.698;-0.292;2023-05-10T14:34:50;8.40;;;2.60;;
76953;SDS011;65893;51.698;-0.292;2023-05-10T14:37:19;8.60;;;2.13;;
76953;SDS011;65893;51.698;-0.292;2023-05-10T14:39:49;6.82;;;2.08;;
76953;SDS011;65893;51.698;-0.292;2023-05-10T14:42:15;6.88;;;2.15;;
76953;SDS011;65893;51.698;-0.292;2023-05-10T14:44:41;8.40;;;2.15;;
76953;SDS011;65893;51.698;-0.292;2023-05-10T14:47:13;7.68;;;1.90;;
76953;SDS011;65893;51.698;-0.292;2023-05-10T14:49:39;9.27;;;2.20;;
76953;SDS011;65893;51.698;-0.292;2023-05-10T14:52:11;5.50;;;1.95;;
76953;SDS011;65893;51.698;-0.292;2023-05-10T14:54:46;5.55;;;2.25;;
76953;SDS011;65893;51.698;-0.292;2023-05-10T14:57:14;5.93;;;1.88;;
76953;SDS011;65893;51.698;-0.292;2023-05-10T14:59:47;9.55;;;1.65;;
76953;SDS011;65893;51.698;-0.292;2023-05-10T15:02:17;9.35;;;1.90;;
76953;SDS011;65893;51.698;-0.292;2023-05-10T15:04:49;5.13;;;1.88;;
76953;SDS011;65893;51.698;-0.292;2023-05-10T15:07:28;5.57;;;1.52;;
76953;SDS011;65893;51.698;-0.292;2023-05-10T15:10:00;6.82;;;2.05;;
76953;SDS011;65893;51.698;-0.292;2023-05-10T15:12:27;7.88;;;1.88;;
76953;SDS011;65893;51.698;-0.292;2023-05-10T15:14:53;8.98;;;1.80;;
76953;SDS011;65893;51.698;-0.292;2023-05-10T15:17:19;9.98;;;2.78;;
76953;SDS011;65893;51.698;-0.292;2023-05-10T15:19:45;10.30;;;1.95;;
76953;SDS011;65893;51.698;-0.292;2023-05-10T15:22:14;6.00;;;2.03;;
76953;SDS011;65893;51.698;-0.292;2023-05-10T15:24:41;5.32;;;2.10;;
76953;SDS011;65893;51.698;-0.292;2023-05-10T15:27:07;8.70;;;2.20;;
76953;SDS011;65893;51.698;-0.292;2023-05-10T15:29:33;6.18;;;2.05;;
76953;SDS011;65893;51.698;-0.292;2023-05-10T15:32:00;5.85;;;1.60;;
76953;SDS011;65893;51.698;-0.292;2023-05-10T15:34:34;6.18;;;1.65;;
76953;SDS011;65893;51.698;-0.292;2023-05-10T15:37:00;5.95;;;1.90;;
76953;SDS011;65893;51.698;-0.292;2023-05-10T15:39:28;6.68;;;1.63;;
76953;SDS011;65893;51.698;-0.292;2023-05-10T15:41:55;4.78;;;1.67;;
76953;SDS011;65893;51.698;-0.292;2023-05-10T15:44:24;5.30;;;1.55;;
76953;SDS011;65893;51.698;-0.292;2023-05-10T15:46:59;8.38;;;2.42;;
76953;SDS011;65893;51.698;-0.292;2023-05-10T15:52:44;11.20;;;2.05;;
76953;SDS011;65893;51.698;-0.292;2023-05-10T15:58:26;7.47;;;1.50;;
76953;SDS011;65893;51.698;-0.292;2023-05-10T16:00:54;6.05;;;2.00;;
76953;SDS011;65893;51.698;-0.292;2023-05-10T16:03:23;6.20;;;1.80;;
76953;SDS011;65893;51.698;-0.292;2023-05-10T16:05:52;6.18;;;2.00;;
76953;SDS011;65893;51.698;-0.292;2023-05-10T16:11:14;9.07;;;1.90;;
76953;SDS011;65893;51.698;-0.292;2023-05-10T16:13:40;5.88;;;1.75;;
76953;SDS011;65893;51.698;-0.292;2023-05-10T16:16:06;6.25;;;2.05;;
76953;SDS011;65893;51.698;-0.292;2023-05-10T16:18:33;5.90;;;1.48;;
76953;SDS011;65893;51.698;-0.292;2023-05-10T16:20:59;6.47;;;1.55;;
76953;SDS011;65893;51.698;-0.292;2023-05-10T16:23:26;6.63;;;2.10;;
76953;SDS011;65893;51.698;-0.292;2023-05-10T16:25:52;7.45;;;2.03;;
76953;SDS011;65893;51.698;-0.292;2023-05-10T16:31:17;8.32;;;1.60;;
76953;SDS011;65893;51.698;-0.292;2023-05-10T16:33:48;7.53;;;1.67;;
76953;SDS011;65893;51.698;-0.292;2023-05-10T16:36:14;7.07;;;2.17;;
76953;SDS011;65893;51.698;-0.292;2023-05-10T16:38:40;7.60;;;2.28;;
76953;SDS011;65893;51.698;-0.292;2023-05-10T16:41:08;11.40;;;2.25;;
76953;SDS011;65893;51.698;-0.292;2023-05-10T16:43:35;10.75;;;2.70;;
76953;SDS011;65893;51.698;-0.292;2023-05-10T16:46:01;12.15;;;2.88;;
76953;SDS011;65893;51.698;-0.292;2023-05-10T16:48:27;16.50;;;3.10;;
76953;SDS011;65893;51.698;-0.292;2023-05-10T16:50:53;12.63;;;2.60;;
76953;SDS011;65893;51.698;-0.292;2023-05-10T16:53:19;15.55;;;4.57;;
76953;SDS011;65893;51.698;-0.292;2023-05-10T16:55:45;7.93;;;2.70;;
76953;SDS011;65893;51.698;-0.292;2023-05-10T16:58:11;8.45;;;2.17;;
76953;SDS011;65893;51.698;-0.292;2023-05-10T17:00:37;6.97;;;2.20;;
76953;SDS011;65893;51.698;-0.292;2023-05-10T17:03:03;7.25;;;1.92;;
76953;SDS011;65893;51.698;-0.292;2023-05-10T17:05:30;6.22;;;2.30;;
76953;SDS011;65893;51.698;-0.292;2023-05-10T17:07:56;9.48;;;2.72;;
76953;SDS011;65893;51.698;-0.292;2023-05-10T17:10:22;8.38;;;1.80;;
76953;SDS011;65893;51.698;-0.292;2023-05-10T17:12:48;6.93;;;3.17;;
76953;SDS011;65893;51.698;-0.292;2023-05-10T17:15:19;6.63;;;1.50;;
76953;SDS011;65893;51.698;-0.292;2023-05-10T17:17:54;5.97;;;1.80;;
76953;SDS011;65893;51.698;-0.292;2023-05-10T17:20:20;5.25;;;1.40;;
76953;SDS011;65893;51.698;-0.292;2023-05-10T17:22:49;11.93;;;3.22;;
76953;SDS011;65893;51.698;-0.292;2023-05-10T17:25:20;6.95;;;1.70;;
76953;SDS011;65893;51.698;-0.292;2023-05-10T17:27:52;8.45;;;1.73;;
76953;SDS011;65893;51.698;-0.292;2023-05-10T17:30:28;5.43;;;1.70;;
76953;SDS011;65893;51.698;-0.292;2023-05-10T17:32:59;6.22;;;1.73;;
76953;SDS011;65893;51.698;-0.292;2023-05-10T17:35:28;8.63;;;2.33;;
76953;SDS011;65893;51.698;-0.292;2023-05-10T17:38:00;4.57;;;1.45;;
76953;SDS011;65893;51.698;-0.292;2023-05-10T17:40:35;5.15;;;1.67;;
76953;SDS011;65893;51.698;-0.292;2023-05-10T17:43:08;6.85;;;2.00;;
76953;SDS011;65893;51.698;-0.292;2023-05-10T17:45:40;5.57;;;1.75;;
76953;SDS011;65893;51.698;-0.292;2023-05-10T17:51:02;4.78;;;1.90;;
76953;SDS011;65893;51.698;-0.292;2023-05-10T17:53:28;14.10;;;1.98;;
76953;SDS011;65893;51.698;-0.292;2023-05-10T17:55:55;7.38;;;2.22;;
76953;SDS011;65893;51.698;-0.292;2023-05-10T17:58:25;5.07;;;2.10;;
76953;SDS011;65893;51.698;-0.292;2023-05-10T18:01:10;8.52;;;2.05;;
76953;SDS011;65893;51.698;-0.292;2023-05-10T18:03:47;5.38;;;1.77;;
76953;SDS011;65893;51.698;-0.292;2023-05-10T18:06:21;5.65;;;1.60;;
76953;SDS011;65893;51.698;-0.292;2023-05-10T18:08:48;6.05;;;1.83;;
76953;SDS011;65893;51.698;-0.292;2023-05-10T18:11:15;7.22;;;1.52;;
76953;SDS011;65893;51.698;-0.292;2023-05-10T18:13:41;8.25;;;1.70;;
76953;SDS011;65893;51.698;-0.292;2023-05-10T18:16:07;3.95;;;1.50;;
76953;SDS011;65893;51.698;-0.292;2023-05-10T18:18:36;4.03;;;1.10;;
76953;SDS011;65893;51.698;-0.292;2023-05-10T18:21:04;5.13;;;1.55;;
76953;SDS011;65893;51.698;-0.292;2023-05-10T18:23:34;12.32;;;3.55;;
76953;SDS011;65893;51.698;-0.292;2023-05-10T18:26:03;2.88;;;1.00;;
76953;SDS011;65893;51.698;-0.292;2023-05-10T18:28:29;3.40;;;1.50;;
76953;SDS011;65893;51.698;-0.292;2023-05-10T18:30:55;3.63;;;1.00;;
76953;SDS011;65893;51.698;-0.292;2023-05-10T18:33:22;3.85;;;1.00;;
76953;SDS011;65893;51.698;-0.292;2023-05-10T18:35:51;1.55;;;0.70;;
76953;SDS011;65893;51.698;-0.292;2023-05-10T18:38:19;3.88;;;0.82;;
76953;SDS011;65893;51.698;-0.292;2023-05-10T18:40:46;2.63;;;0.80;;
76953;SDS011;65893;51.698;-0.292;2023-05-10T18:43:12;5.68;;;1.17;;
76953;SDS011;65893;51.698;-0.292;2023-05-10T18:45:38;2.80;;;0.68;;
76953;SDS011;65893;51.698;-0.292;2023-05-10T18:48:04;1.08;;;0.65;;
76953;SDS011;65893;51.698;-0.292;2023-05-10T18:50:37;6.50;;;0.95;;
76953;SDS011;65893;51.698;-0.292;2023-05-10T18:53:04;2.38;;;0.65;;
76953;SDS011;65893;51.698;-0.292;2023-05-10T18:55:30;2.50;;;0.63;;
76953;SDS011;65893;51.698;-0.292;2023-05-10T18:57:59;3.00;;;0.77;;
76953;SDS011;65893;51.698;-0.292;2023-05-10T19:00:26;1.83;;;0.75;;
76953;SDS011;65893;51.698;-0.292;2023-05-10T19:02:55;4.95;;;1.10;;
76953;SDS011;65893;51.698;-0.292;2023-05-10T19:05:22;2.78;;;0.90;;
76953;SDS011;65893;51.698;-0.292;2023-05-10T19:10:26;2.75;;;0.90;;
76953;SDS011;65893;51.698;-0.292;2023-05-10T19:12:52;4.03;;;1.02;;
76953;SDS011;65893;51.698;-0.292;2023-05-10T19:15:23;3.60;;;0.90;;
76953;SDS011;65893;51.698;-0.292;2023-05-10T19:17:52;3.47;;;1.10;;
76953;SDS011;65893;51.698;-0.292;2023-05-10T19:22:56;5.35;;;1.38;;
76953;SDS011;65893;51.698;-0.292;2023-05-10T19:25:26;2.00;;;0.82;;
76953;SDS011;65893;51.698;-0.292;2023-05-10T19:30:41;3.92;;;1.10;;
76953;SDS011;65893;51.698;-0.292;2023-05-10T19:33:10;4.47;;;1.30;;
76953;SDS011;65893;51.698;-0.292;2023-05-10T19:35:40;3.75;;;1.10;;
76953;SDS011;65893;51.698;-0.292;2023-05-10T19:38:08;3.70;;;0.90;;
76953;SDS011;65893;51.698;-0.292;2023-05-10T19:40:34;6.50;;;1.42;;
76953;SDS011;65893;51.698;-0.292;2023-05-10T19:43:01;6.93;;;1.67;;
76953;SDS011;65893;51.698;-0.292;2023-05-10T20:04:25;3.35;;;1.30;;
76953;SDS011;65893;51.698;-0.292;2023-05-10T20:06:52;3.17;;;1.20;;
76953;SDS011;65893;51.698;-0.292;2023-05-10T20:09:21;6.70;;;1.13;;
76953;SDS011;65893;51.698;-0.292;2023-05-10T20:14:42;4.60;;;1.35;;
76953;SDS011;65893;51.698;-0.292;2023-05-10T20:17:08;7.00;;;1.35;;
76953;SDS011;65893;51.698;-0.292;2023-05-10T20:19:42;5.35;;;1.40;;
76953;SDS011;65893;51.698;-0.292;2023-05-10T20:25:27;4.00;;;1.30;;
76953;SDS011;65893;51.698;-0.292;2023-05-10T20:27:58;4.85;;;1.38;;
76953;SDS011;65893;51.698;-0.292;2023-05-10T20:33:31;3.17;;;1.05;;
76953;SDS011;65893;51.698;-0.292;2023-05-10T20:36:00;3.33;;;0.93;;
76953;SDS011;65893;51.698;-0.292;2023-05-10T20:38:34;2.42;;;0.95;;
76953;SDS011;65893;51.698;-0.292;2023-05-10T20:41:04;2.60;;;1.35;;
76953;SDS011;65893;51.698;-0.292;2023-05-10T20:43:30;2.35;;;0.90;;
76953;SDS011;65893;51.698;-0.292;2023-05-10T20:45:56;2.88;;;1.00;;
76953;SDS011;65893;51.698;-0.292;2023-05-10T20:50:59;5.63;;;0.88;;
76953;SDS011;65893;51.698;-0.292;2023-05-10T20:53:36;2.63;;;0.80;;
76953;SDS011;65893;51.698;-0.292;2023-05-10T21:03:50;3.70;;;1.02;;
76953;SDS011;65893;51.698;-0.292;2023-05-10T23:35:29;10.85;;;1.88;;
76953;SDS011;65893;51.698;-0.292;2023-05-10T23:49:51;8.35;;;1.80;;
